createdAt,value
2019-02-28T00:01:28.760Z,5.00
2019-02-28T00:06:33.792Z,4.90
2019-02-28T00:11:39.506Z,4.90
2019-02-28T00:16:45.537Z,4.80
2019-02-28T00:21:50.625Z,4.70
2019-02-28T00:26:55.683Z,4.60
2019-02-28T00:32:00.701Z,4.60
2019-02-28T00:37:05.736Z,4.40
2019-02-28T00:42:10.795Z,4.30
2019-02-28T00:47:16.509Z,4.40
2019-02-28T00:52:22.249Z,4.40
2019-02-28T00:57:27.370Z,4.40
2019-02-28T01:02:32.400Z,4.30
2019-02-28T01:07:37.643Z,4.30
2019-02-28T01:12:42.697Z,4.40
2019-02-28T01:17:47.888Z,4.40
2019-02-28T01:22:52.913Z,4.40
2019-02-28T01:27:58.031Z,4.40
2019-02-28T01:33:03.063Z,4.40
2019-02-28T01:38:09.878Z,4.30
2019-02-28T01:43:14.933Z,4.20
2019-02-28T01:48:22.586Z,4.10
2019-02-28T01:53:26.635Z,4.10
2019-02-28T01:58:31.672Z,4.00
2019-02-28T02:03:36.713Z,3.90
2019-02-28T02:08:41.782Z,3.90
2019-02-28T02:13:46.891Z,3.80
2019-02-28T02:18:52.204Z,3.70
2019-02-28T02:23:57.219Z,3.70
2019-02-28T02:29:02.314Z,3.60
2019-02-28T02:34:07.340Z,3.50
2019-02-28T02:39:16.364Z,3.40
2019-02-28T02:44:19.161Z,3.40
2019-02-28T02:49:25.297Z,3.40
2019-02-28T02:54:30.358Z,3.30
2019-02-28T02:59:39.096Z,3.10
2019-02-28T03:04:42.401Z,3.00
2019-02-28T03:09:47.706Z,3.00
2019-02-28T03:14:52.761Z,3.00
2019-02-28T03:19:58.056Z,3.00
2019-02-28T03:25:03.305Z,3.00
2019-02-28T03:30:10.794Z,3.10
2019-02-28T03:35:15.866Z,3.00
2019-02-28T03:40:20.974Z,3.10
2019-02-28T03:45:33.821Z,3.20
2019-02-28T03:50:32.649Z,3.10
2019-02-28T03:55:40.875Z,3.10
2019-02-28T04:00:45.553Z,3.20
2019-02-28T04:05:50.569Z,3.10
2019-02-28T04:10:55.921Z,3.20
2019-02-28T04:16:08.690Z,3.10
2019-02-28T04:21:10.315Z,3.10
2019-02-28T04:26:14.571Z,3.10
2019-02-28T04:31:20.358Z,3.10
2019-02-28T04:36:26.038Z,3.00
2019-02-28T04:41:32.963Z,3.00
2019-02-28T04:46:37.716Z,2.80
2019-02-28T04:51:42.804Z,2.80
2019-02-28T04:56:50.701Z,2.60
2019-02-28T05:01:55.660Z,2.60
2019-02-28T05:07:00.715Z,2.50
2019-02-28T05:12:06.023Z,2.60
2019-02-28T05:17:11.301Z,2.60
2019-02-28T05:22:16.346Z,2.50
2019-02-28T05:27:21.399Z,2.50
2019-02-28T05:32:26.432Z,2.60
2019-02-28T05:37:31.449Z,2.50
2019-02-28T05:42:38.400Z,2.50
2019-02-28T05:47:46.927Z,2.50
2019-02-28T05:52:50.134Z,2.50
2019-02-28T05:57:55.300Z,2.30
2019-02-28T06:03:02.519Z,2.30
2019-02-28T06:08:07.109Z,2.20
2019-02-28T06:13:12.141Z,2.20
2019-02-28T06:18:17.205Z,2.20
2019-02-28T06:23:22.247Z,2.20
2019-02-28T06:28:27.616Z,2.10
2019-02-28T06:33:34.450Z,2.10
2019-02-28T06:38:39.795Z,2.10
2019-02-28T06:43:44.971Z,2.20
2019-02-28T06:48:50.133Z,2.30
2019-02-28T06:53:55.385Z,2.40
2019-02-28T06:59:00.592Z,2.50
2019-02-28T07:04:05.621Z,2.50
2019-02-28T07:09:10.853Z,2.50
2019-02-28T07:14:15.902Z,2.50
2019-02-28T07:19:21.271Z,2.70
2019-02-28T07:24:26.631Z,2.80
2019-02-28T07:29:32.147Z,3.10
2019-02-28T07:34:37.293Z,3.20
2019-02-28T07:39:42.528Z,3.30
2019-02-28T07:44:49.347Z,3.30
2019-02-28T07:49:54.478Z,3.50
2019-02-28T07:54:59.508Z,3.50
2019-02-28T08:00:05.877Z,3.50
2019-02-28T08:05:11.542Z,3.40
2019-02-28T08:10:18.500Z,3.30
2019-02-28T08:15:23.588Z,3.20
2019-02-28T08:20:30.654Z,3.20
2019-02-28T08:25:35.338Z,3.20
2019-02-28T08:30:40.385Z,3.20
2019-02-28T08:35:45.454Z,3.30
2019-02-28T08:40:51.605Z,3.40
2019-02-28T08:45:56.888Z,3.60
2019-02-28T08:51:02.039Z,3.70
2019-02-28T08:56:07.118Z,4.00
2019-02-28T09:01:12.120Z,4.20
2019-02-28T09:06:17.224Z,4.50
2019-02-28T09:11:22.250Z,4.60
2019-02-28T09:16:27.275Z,4.80
2019-02-28T09:21:32.357Z,4.80
2019-02-28T09:26:39.236Z,4.90
2019-02-28T09:31:44.288Z,5.00
2019-02-28T09:36:52.403Z,5.10
2019-02-28T09:41:56.070Z,5.20
2019-02-28T09:47:01.337Z,5.20
2019-02-28T09:52:07.283Z,5.40
2019-02-28T09:57:15.417Z,5.50
2019-02-28T10:02:19.248Z,5.70
2019-02-28T10:07:27.123Z,5.80
2019-02-28T10:12:31.520Z,5.90
2019-02-28T10:17:36.581Z,6.00
2019-02-28T10:22:44.389Z,6.20
2019-02-28T10:27:48.304Z,6.30
2019-02-28T10:32:53.450Z,6.50
2019-02-28T10:37:58.937Z,6.70
2019-02-28T10:43:04.213Z,6.70
2019-02-28T10:48:09.244Z,6.90
2019-02-28T10:53:14.408Z,7.00
2019-02-28T10:58:19.411Z,7.20
2019-02-28T11:03:24.489Z,7.40
2019-02-28T11:08:29.568Z,7.40
2019-02-28T11:13:34.758Z,7.40
2019-02-28T11:18:41.908Z,7.60
2019-02-28T11:23:50.064Z,7.80
2019-02-28T11:28:55.239Z,7.80
2019-02-28T11:34:01.969Z,8.00
2019-02-28T11:39:07.796Z,7.90
2019-02-28T11:44:14.826Z,7.90
2019-02-28T11:49:19.564Z,8.20
2019-02-28T11:54:24.591Z,8.00
2019-02-28T11:59:29.621Z,7.90
2019-02-28T12:04:37.403Z,7.90
2019-02-28T12:09:41.448Z,7.80
2019-02-28T12:14:47.588Z,7.80
2019-02-28T12:19:52.674Z,7.80
2019-02-28T12:24:57.735Z,8.00
2019-02-28T12:30:02.771Z,8.10
2019-02-28T12:35:08.305Z,8.20
2019-02-28T12:40:15.953Z,8.30
2019-02-28T12:45:26.987Z,8.20
2019-02-28T12:50:32.023Z,8.00
2019-02-28T12:55:38.902Z,8.10
2019-02-28T13:00:44.000Z,8.00
2019-02-28T13:05:49.579Z,8.00
2019-02-28T13:10:54.800Z,8.20
2019-02-28T13:15:59.874Z,8.30
2019-02-28T13:21:06.139Z,8.30
2019-02-28T13:26:12.131Z,8.20
2019-02-28T13:31:17.365Z,8.40
2019-02-28T13:36:22.854Z,8.30
2019-02-28T13:41:28.003Z,8.20
2019-02-28T13:46:34.380Z,8.30
2019-02-28T13:51:42.064Z,8.30
2019-02-28T13:56:46.209Z,8.40
2019-02-28T14:01:52.123Z,8.50
2019-02-28T14:06:58.084Z,8.50
2019-02-28T14:12:03.625Z,8.50
2019-02-28T14:17:08.820Z,8.60
2019-02-28T14:22:14.043Z,8.60
2019-02-28T14:27:21.652Z,8.60
2019-02-28T14:32:26.119Z,8.70
2019-02-28T14:37:31.480Z,8.60
2019-02-28T14:42:36.693Z,8.60
2019-02-28T14:47:41.893Z,8.70
2019-02-28T14:52:46.948Z,8.70
2019-02-28T14:57:52.078Z,8.70
2019-02-28T15:02:59.390Z,8.70
2019-02-28T15:08:04.580Z,8.60
2019-02-28T15:13:09.865Z,8.60
2019-02-28T15:18:14.977Z,8.60
2019-02-28T15:23:20.110Z,8.60
2019-02-28T15:28:25.167Z,8.60
2019-02-28T15:33:30.672Z,8.60
2019-02-28T15:38:36.737Z,8.60
2019-02-28T15:43:41.787Z,8.60
2019-02-28T15:48:47.154Z,8.50
2019-02-28T15:53:52.381Z,8.50
2019-02-28T15:58:57.459Z,8.40
2019-02-28T16:04:02.614Z,8.40
2019-02-28T16:09:11.438Z,8.30
2019-02-28T16:14:16.714Z,8.20
2019-02-28T16:19:22.794Z,8.20
2019-02-28T16:24:27.896Z,8.10
2019-02-28T16:29:33.106Z,8.00
2019-02-28T16:34:38.759Z,7.90
2019-02-28T16:39:45.055Z,7.90
2019-02-28T16:44:50.108Z,7.70
2019-02-28T16:49:55.337Z,7.60
2019-02-28T16:55:02.798Z,7.60
2019-02-28T17:00:08.632Z,7.60
2019-02-28T17:05:16.011Z,7.60
2019-02-28T17:10:25.164Z,7.60
2019-02-28T17:15:55.413Z,7.60
2019-02-28T17:20:59.584Z,7.60
2019-02-28T17:26:04.613Z,7.60
2019-02-28T17:31:27.173Z,7.60
2019-02-28T17:36:32.533Z,7.60
2019-02-28T17:41:37.954Z,7.60
2019-02-28T17:46:43.590Z,7.60
2019-02-28T17:51:59.487Z,7.60
2019-02-28T17:57:18.367Z,7.60
2019-02-28T18:03:06.516Z,7.60
2019-02-28T18:08:37.579Z,7.60
2019-02-28T18:14:03.391Z,7.60
2019-02-28T18:19:41.041Z,7.60
2019-02-28T18:25:33.187Z,7.60
2019-02-28T18:31:10.659Z,7.60
2019-02-28T18:36:18.553Z,7.60
2019-02-28T18:41:23.915Z,7.60
2019-02-28T18:46:30.779Z,7.50
2019-02-28T18:51:35.562Z,7.40
2019-02-28T18:56:40.611Z,7.40
2019-02-28T19:01:45.659Z,7.40
2019-02-28T19:06:51.024Z,7.40
2019-02-28T19:11:59.728Z,7.50
2019-02-28T19:17:05.434Z,7.90
2019-02-28T19:22:12.305Z,8.20
2019-02-28T19:27:21.317Z,8.30
2019-02-28T19:32:26.631Z,8.40
2019-02-28T19:37:31.970Z,8.40
2019-02-28T19:42:37.023Z,8.40
2019-02-28T19:47:43.094Z,8.50
2019-02-28T19:52:48.182Z,8.50
2019-02-28T19:57:53.201Z,8.50
2019-02-28T20:02:58.272Z,8.50
2019-02-28T20:08:03.522Z,8.50
2019-02-28T20:13:08.552Z,8.50
2019-02-28T20:18:13.730Z,8.50
2019-02-28T20:23:19.014Z,8.40
2019-02-28T20:28:24.075Z,8.40
2019-02-28T20:33:29.198Z,8.30
2019-02-28T20:38:34.277Z,8.10
2019-02-28T20:43:39.335Z,7.80
2019-02-28T20:48:44.692Z,7.70
2019-02-28T20:53:49.685Z,7.70
2019-02-28T20:58:54.800Z,7.80
2019-02-28T21:04:00.158Z,7.80
2019-02-28T21:09:07.819Z,7.80
2019-02-28T21:14:12.905Z,7.80
2019-02-28T21:19:18.190Z,7.90
2019-02-28T21:24:23.445Z,7.90
2019-02-28T21:29:28.677Z,7.90
2019-02-28T21:34:34.176Z,7.90
2019-02-28T21:39:41.458Z,7.80
2019-02-28T21:44:47.591Z,7.80
2019-02-28T21:49:52.993Z,7.80
2019-02-28T21:54:58.033Z,7.70
2019-02-28T22:00:03.094Z,7.70
2019-02-28T22:05:11.494Z,7.70
2019-02-28T22:10:16.919Z,7.70
2019-02-28T22:15:22.276Z,7.70
2019-02-28T22:20:27.636Z,7.70
2019-02-28T22:25:32.694Z,7.70
2019-02-28T22:31:02.889Z,7.70
2019-02-28T22:36:10.010Z,7.70
2019-02-28T22:41:15.192Z,7.70
2019-02-28T22:46:20.246Z,7.60
2019-02-28T22:51:25.300Z,7.60
2019-02-28T22:56:31.311Z,7.60
2019-02-28T23:01:38.454Z,7.50
2019-02-28T23:06:43.841Z,7.50
2019-02-28T23:11:49.203Z,7.50
2019-02-28T23:16:54.254Z,7.50
2019-02-28T23:21:59.493Z,7.50
2019-02-28T23:27:20.752Z,7.50
2019-02-28T23:32:38.196Z,7.50
2019-02-28T23:37:43.935Z,7.60
2019-02-28T23:42:50.840Z,7.60
2019-02-28T23:47:56.216Z,7.70
2019-02-28T23:53:01.274Z,7.70
2019-02-28T23:58:07.412Z,7.70
